sensor_id;sensor_type;location;lat;lon;timestamp;P1;durP1;ratioP1;P2;durP2;ratioP2
79631;SDS011;69108;41.120;16.874;2023-08-24T00:01:10;19.60;;;13.30;;
79631;SDS011;69108;41.120;16.874;2023-08-24T00:03:38;16.42;;;11.85;;
79631;SDS011;69108;41.120;16.874;2023-08-24T00:06:06;18.58;;;12.98;;
79631;SDS011;69108;41.120;16.874;2023-08-24T00:08:35;20.00;;;13.23;;
79631;SDS011;69108;41.120;16.874;2023-08-24T00:11:03;18.27;;;12.95;;
79631;SDS011;69108;41.120;16.874;2023-08-24T00:13:33;16.98;;;12.38;;
79631;SDS011;69108;41.120;16.874;2023-08-24T00:16:00;17.98;;;12.95;;
79631;SDS011;69108;41.120;16.874;2023-08-24T00:18:27;16.95;;;12.43;;
79631;SDS011;69108;41.120;16.874;2023-08-24T00:20:54;19.23;;;12.82;;
79631;SDS011;69108;41.120;16.874;2023-08-24T00:23:21;17.58;;;12.27;;
79631;SDS011;69108;41.120;16.874;2023-08-24T00:25:48;18.17;;;12.65;;
79631;SDS011;69108;41.120;16.874;2023-08-24T00:28:15;19.48;;;12.82;;
79631;SDS011;69108;41.120;16.874;2023-08-24T00:30:44;17.92;;;12.85;;
79631;SDS011;69108;41.120;16.874;2023-08-24T00:33:11;18.98;;;13.48;;
79631;SDS011;69108;41.120;16.874;2023-08-24T00:35:38;19.33;;;12.52;;
79631;SDS011;69108;41.120;16.874;2023-08-24T00:38:05;17.13;;;12.10;;
79631;SDS011;69108;41.120;16.874;2023-08-24T00:40:33;18.27;;;12.52;;
79631;SDS011;69108;41.120;16.874;2023-08-24T00:43:01;21.05;;;13.55;;
79631;SDS011;69108;41.120;16.874;2023-08-24T00:45:28;17.70;;;11.75;;
79631;SDS011;69108;41.120;16.874;2023-08-24T00:47:59;17.33;;;13.50;;
79631;SDS011;69108;41.120;16.874;2023-08-24T00:50:26;18.27;;;12.90;;
79631;SDS011;69108;41.120;16.874;2023-08-24T00:52:55;19.58;;;13.40;;
79631;SDS011;69108;41.120;16.874;2023-08-24T00:55:22;17.23;;;12.32;;
79631;SDS011;69108;41.120;16.874;2023-08-24T00:57:50;18.17;;;13.35;;
79631;SDS011;69108;41.120;16.874;2023-08-24T01:00:18;19.05;;;14.38;;
79631;SDS011;69108;41.120;16.874;2023-08-24T01:02:45;17.48;;;13.20;;
79631;SDS011;69108;41.120;16.874;2023-08-24T01:05:15;18.67;;;13.40;;
79631;SDS011;69108;41.120;16.874;2023-08-24T01:07:42;20.48;;;14.50;;
79631;SDS011;69108;41.120;16.874;2023-08-24T01:10:09;20.40;;;14.02;;
79631;SDS011;69108;41.120;16.874;2023-08-24T01:12:41;17.83;;;13.13;;
79631;SDS011;69108;41.120;16.874;2023-08-24T01:15:13;19.30;;;13.82;;
79631;SDS011;69108;41.120;16.874;2023-08-24T01:17:42;16.92;;;13.38;;
79631;SDS011;69108;41.120;16.874;2023-08-24T01:20:10;17.98;;;12.98;;
79631;SDS011;69108;41.120;16.874;2023-08-24T01:22:41;16.13;;;13.05;;
79631;SDS011;69108;41.120;16.874;2023-08-24T01:25:14;16.95;;;12.57;;
79631;SDS011;69108;41.120;16.874;2023-08-24T01:27:46;18.27;;;12.82;;
79631;SDS011;69108;41.120;16.874;2023-08-24T01:30:14;18.70;;;13.73;;
79631;SDS011;69108;41.120;16.874;2023-08-24T01:32:43;18.75;;;12.38;;
79631;SDS011;69108;41.120;16.874;2023-08-24T01:35:12;19.90;;;13.88;;
79631;SDS011;69108;41.120;16.874;2023-08-24T01:37:41;19.65;;;13.32;;
79631;SDS011;69108;41.120;16.874;2023-08-24T01:40:10;18.10;;;13.02;;
79631;SDS011;69108;41.120;16.874;2023-08-24T01:42:42;21.75;;;14.07;;
79631;SDS011;69108;41.120;16.874;2023-08-24T01:45:13;18.30;;;13.27;;
79631;SDS011;69108;41.120;16.874;2023-08-24T01:47:41;19.83;;;12.98;;
79631;SDS011;69108;41.120;16.874;2023-08-24T01:50:09;18.77;;;13.88;;
79631;SDS011;69108;41.120;16.874;2023-08-24T01:52:37;16.92;;;12.27;;
79631;SDS011;69108;41.120;16.874;2023-08-24T01:55:07;16.77;;;12.98;;
79631;SDS011;69108;41.120;16.874;2023-08-24T01:57:35;17.55;;;12.70;;
79631;SDS011;69108;41.120;16.874;2023-08-24T02:00:03;18.55;;;13.32;;
79631;SDS011;69108;41.120;16.874;2023-08-24T02:02:34;18.77;;;12.98;;
79631;SDS011;69108;41.120;16.874;2023-08-24T02:05:02;17.17;;;13.02;;
79631;SDS011;69108;41.120;16.874;2023-08-24T02:07:29;17.80;;;13.10;;
79631;SDS011;69108;41.120;16.874;2023-08-24T02:09:56;17.40;;;13.18;;
79631;SDS011;69108;41.120;16.874;2023-08-24T02:12:23;17.98;;;12.65;;
79631;SDS011;69108;41.120;16.874;2023-08-24T02:14:51;21.30;;;13.05;;
79631;SDS011;69108;41.120;16.874;2023-08-24T02:17:18;16.17;;;12.73;;
79631;SDS011;69108;41.120;16.874;2023-08-24T02:19:47;18.60;;;13.07;;
79631;SDS011;69108;41.120;16.874;2023-08-24T02:22:15;17.98;;;13.45;;
79631;SDS011;69108;41.120;16.874;2023-08-24T02:24:42;18.40;;;13.23;;
79631;SDS011;69108;41.120;16.874;2023-08-24T02:27:09;19.33;;;13.45;;
79631;SDS011;69108;41.120;16.874;2023-08-24T02:29:36;19.70;;;13.75;;
79631;SDS011;69108;41.120;16.874;2023-08-24T02:32:04;17.08;;;13.38;;
79631;SDS011;69108;41.120;16.874;2023-08-24T02:34:32;17.58;;;13.13;;
79631;SDS011;69108;41.120;16.874;2023-08-24T02:39:27;19.40;;;12.98;;
79631;SDS011;69108;41.120;16.874;2023-08-24T02:41:54;16.52;;;13.05;;
79631;SDS011;69108;41.120;16.874;2023-08-24T02:44:22;16.33;;;12.95;;
79631;SDS011;69108;41.120;16.874;2023-08-24T02:46:49;18.88;;;12.57;;
79631;SDS011;69108;41.120;16.874;2023-08-24T02:49:17;16.15;;;13.00;;
79631;SDS011;69108;41.120;16.874;2023-08-24T02:51:46;19.00;;;13.38;;
79631;SDS011;69108;41.120;16.874;2023-08-24T02:54:15;19.20;;;13.27;;
79631;SDS011;69108;41.120;16.874;2023-08-24T02:56:43;18.50;;;12.35;;
79631;SDS011;69108;41.120;16.874;2023-08-24T02:59:09;19.35;;;13.93;;
79631;SDS011;69108;41.120;16.874;2023-08-24T03:01:37;17.67;;;12.35;;
79631;SDS011;69108;41.120;16.874;2023-08-24T03:04:08;18.58;;;13.52;;
79631;SDS011;69108;41.120;16.874;2023-08-24T03:06:35;20.02;;;13.80;;
79631;SDS011;69108;41.120;16.874;2023-08-24T03:09:02;19.83;;;12.45;;
79631;SDS011;69108;41.120;16.874;2023-08-24T03:11:32;17.75;;;12.75;;
79631;SDS011;69108;41.120;16.874;2023-08-24T03:14:00;19.15;;;13.13;;
79631;SDS011;69108;41.120;16.874;2023-08-24T03:16:27;19.73;;;14.10;;
79631;SDS011;69108;41.120;16.874;2023-08-24T03:18:59;17.02;;;13.43;;
79631;SDS011;69108;41.120;16.874;2023-08-24T03:21:26;19.92;;;13.43;;
79631;SDS011;69108;41.120;16.874;2023-08-24T03:23:53;15.85;;;12.93;;
79631;SDS011;69108;41.120;16.874;2023-08-24T03:26:20;16.08;;;12.27;;
79631;SDS011;69108;41.120;16.874;2023-08-24T03:28:50;18.05;;;13.95;;
79631;SDS011;69108;41.120;16.874;2023-08-24T03:31:17;18.02;;;13.60;;
79631;SDS011;69108;41.120;16.874;2023-08-24T03:33:45;15.65;;;12.77;;
79631;SDS011;69108;41.120;16.874;2023-08-24T03:36:13;15.93;;;13.18;;
79631;SDS011;69108;41.120;16.874;2023-08-24T03:38:42;19.38;;;12.45;;
79631;SDS011;69108;41.120;16.874;2023-08-24T03:41:14;17.92;;;13.40;;
79631;SDS011;69108;41.120;16.874;2023-08-24T03:43:50;22.13;;;14.45;;
79631;SDS011;69108;41.120;16.874;2023-08-24T03:46:17;18.63;;;12.73;;
79631;SDS011;69108;41.120;16.874;2023-08-24T03:51:12;19.85;;;13.88;;
79631;SDS011;69108;41.120;16.874;2023-08-24T03:53:39;18.88;;;14.05;;
79631;SDS011;69108;41.120;16.874;2023-08-24T03:56:06;18.55;;;13.48;;
79631;SDS011;69108;41.120;16.874;2023-08-24T03:58:33;20.70;;;14.10;;
79631;SDS011;69108;41.120;16.874;2023-08-24T04:01:01;19.85;;;13.93;;
79631;SDS011;69108;41.120;16.874;2023-08-24T04:03:28;19.02;;;13.30;;
79631;SDS011;69108;41.120;16.874;2023-08-24T04:05:56;17.70;;;14.52;;
79631;SDS011;69108;41.120;16.874;2023-08-24T04:08:23;20.63;;;13.52;;
79631;SDS011;69108;41.120;16.874;2023-08-24T04:10:50;18.33;;;13.63;;
79631;SDS011;69108;41.120;16.874;2023-08-24T04:13:17;19.55;;;14.15;;
79631;SDS011;69108;41.120;16.874;2023-08-24T04:15:44;19.63;;;14.05;;
79631;SDS011;69108;41.120;16.874;2023-08-24T04:18:12;18.40;;;13.23;;
79631;SDS011;69108;41.120;16.874;2023-08-24T04:20:39;19.00;;;14.30;;
79631;SDS011;69108;41.120;16.874;2023-08-24T04:23:06;20.35;;;14.50;;
79631;SDS011;69108;41.120;16.874;2023-08-24T04:25:35;20.15;;;14.23;;
79631;SDS011;69108;41.120;16.874;2023-08-24T04:28:05;22.10;;;14.40;;
79631;SDS011;69108;41.120;16.874;2023-08-24T04:30:32;23.13;;;17.48;;
79631;SDS011;69108;41.120;16.874;2023-08-24T04:32:59;21.20;;;13.48;;
79631;SDS011;69108;41.120;16.874;2023-08-24T04:35:30;20.23;;;13.32;;
79631;SDS011;69108;41.120;16.874;2023-08-24T04:38:00;19.90;;;13.90;;
79631;SDS011;69108;41.120;16.874;2023-08-24T04:40:28;17.85;;;13.70;;
79631;SDS011;69108;41.120;16.874;2023-08-24T04:42:55;18.20;;;13.80;;
79631;SDS011;69108;41.120;16.874;2023-08-24T04:47:49;18.92;;;13.60;;
79631;SDS011;69108;41.120;16.874;2023-08-24T04:50:16;19.83;;;13.20;;
79631;SDS011;69108;41.120;16.874;2023-08-24T04:52:45;25.50;;;15.23;;
79631;SDS011;69108;41.120;16.874;2023-08-24T04:55:12;18.00;;;13.98;;
79631;SDS011;69108;41.120;16.874;2023-08-24T04:57:39;21.77;;;13.43;;
79631;SDS011;69108;41.120;16.874;2023-08-24T05:00:08;18.50;;;13.63;;
79631;SDS011;69108;41.120;16.874;2023-08-24T05:02:37;21.40;;;14.68;;
79631;SDS011;69108;41.120;16.874;2023-08-24T05:05:05;19.63;;;13.82;;
79631;SDS011;69108;41.120;16.874;2023-08-24T05:07:35;19.10;;;13.45;;
79631;SDS011;69108;41.120;16.874;2023-08-24T05:10:04;27.92;;;16.52;;
79631;SDS011;69108;41.120;16.874;2023-08-24T05:12:32;21.02;;;14.10;;
79631;SDS011;69108;41.120;16.874;2023-08-24T05:15:00;19.75;;;14.02;;
79631;SDS011;69108;41.120;16.874;2023-08-24T05:17:29;20.73;;;14.18;;
79631;SDS011;69108;41.120;16.874;2023-08-24T05:19:59;19.80;;;13.43;;
79631;SDS011;69108;41.120;16.874;2023-08-24T05:22:26;24.27;;;14.93;;
79631;SDS011;69108;41.120;16.874;2023-08-24T05:24:54;23.00;;;14.73;;
79631;SDS011;69108;41.120;16.874;2023-08-24T05:27:23;19.63;;;14.07;;
79631;SDS011;69108;41.120;16.874;2023-08-24T05:29:50;21.45;;;15.48;;
79631;SDS011;69108;41.120;16.874;2023-08-24T05:32:17;21.63;;;14.07;;
79631;SDS011;69108;41.120;16.874;2023-08-24T05:34:47;18.38;;;13.07;;
79631;SDS011;69108;41.120;16.874;2023-08-24T05:37:16;19.67;;;14.20;;
79631;SDS011;69108;41.120;16.874;2023-08-24T05:39:45;20.60;;;15.00;;
79631;SDS011;69108;41.120;16.874;2023-08-24T05:42:14;22.90;;;14.30;;
79631;SDS011;69108;41.120;16.874;2023-08-24T05:44:46;18.48;;;13.93;;
79631;SDS011;69108;41.120;16.874;2023-08-24T05:47:13;17.27;;;13.48;;
79631;SDS011;69108;41.120;16.874;2023-08-24T05:52:08;22.10;;;14.73;;
79631;SDS011;69108;41.120;16.874;2023-08-24T05:54:36;26.27;;;14.45;;
79631;SDS011;69108;41.120;16.874;2023-08-24T05:57:03;17.60;;;13.52;;
79631;SDS011;69108;41.120;16.874;2023-08-24T06:01:58;20.27;;;13.25;;
79631;SDS011;69108;41.120;16.874;2023-08-24T06:04:26;19.00;;;13.90;;
79631;SDS011;69108;41.120;16.874;2023-08-24T06:06:53;19.02;;;13.98;;
79631;SDS011;69108;41.120;16.874;2023-08-24T06:09:21;22.60;;;15.07;;
79631;SDS011;69108;41.120;16.874;2023-08-24T06:11:49;21.60;;;14.75;;
79631;SDS011;69108;41.120;16.874;2023-08-24T06:16:43;19.55;;;14.15;;
79631;SDS011;69108;41.120;16.874;2023-08-24T06:21:40;19.30;;;13.48;;
79631;SDS011;69108;41.120;16.874;2023-08-24T06:24:09;20.27;;;13.68;;
79631;SDS011;69108;41.120;16.874;2023-08-24T06:26:38;22.83;;;13.68;;
79631;SDS011;69108;41.120;16.874;2023-08-24T06:29:06;20.17;;;13.60;;
79631;SDS011;69108;41.120;16.874;2023-08-24T06:34:02;17.45;;;12.52;;
79631;SDS011;69108;41.120;16.874;2023-08-24T06:36:32;22.35;;;14.73;;
79631;SDS011;69108;41.120;16.874;2023-08-24T06:39:01;22.77;;;13.57;;
79631;SDS011;69108;41.120;16.874;2023-08-24T06:44:00;22.10;;;13.02;;
79631;SDS011;69108;41.120;16.874;2023-08-24T06:46:28;20.85;;;12.90;;
79631;SDS011;69108;41.120;16.874;2023-08-24T06:48:57;22.42;;;13.95;;
79631;SDS011;69108;41.120;16.874;2023-08-24T06:51:28;20.27;;;13.25;;
79631;SDS011;69108;41.120;16.874;2023-08-24T06:54:01;20.08;;;13.35;;
79631;SDS011;69108;41.120;16.874;2023-08-24T06:56:30;20.90;;;13.02;;
79631;SDS011;69108;41.120;16.874;2023-08-24T06:58:58;17.83;;;13.15;;
79631;SDS011;69108;41.120;16.874;2023-08-24T07:01:25;17.90;;;12.55;;
79631;SDS011;69108;41.120;16.874;2023-08-24T07:03:52;18.55;;;12.27;;
79631;SDS011;69108;41.120;16.874;2023-08-24T07:06:20;17.58;;;13.50;;
79631;SDS011;69108;41.120;16.874;2023-08-24T07:08:47;15.52;;;12.50;;
79631;SDS011;69108;41.120;16.874;2023-08-24T07:11:16;24.40;;;12.60;;
79631;SDS011;69108;41.120;16.874;2023-08-24T07:13:45;17.10;;;12.45;;
79631;SDS011;69108;41.120;16.874;2023-08-24T07:16:15;17.08;;;11.70;;
79631;SDS011;69108;41.120;16.874;2023-08-24T07:18:44;24.20;;;13.57;;
79631;SDS011;69108;41.120;16.874;2023-08-24T07:21:15;18.48;;;12.45;;
79631;SDS011;69108;41.120;16.874;2023-08-24T07:23:47;19.25;;;12.60;;
79631;SDS011;69108;41.120;16.874;2023-08-24T07:26:22;20.07;;;12.67;;
79631;SDS011;69108;41.120;16.874;2023-08-24T07:28:50;21.20;;;12.77;;
79631;SDS011;69108;41.120;16.874;2023-08-24T07:31:18;17.80;;;12.45;;
79631;SDS011;69108;41.120;16.874;2023-08-24T07:33:54;16.73;;;11.98;;
79631;SDS011;69108;41.120;16.874;2023-08-24T07:36:25;16.88;;;11.82;;
79631;SDS011;69108;41.120;16.874;2023-08-24T07:38:52;21.90;;;13.35;;
79631;SDS011;69108;41.120;16.874;2023-08-24T07:41:30;19.15;;;12.50;;
79631;SDS011;69108;41.120;16.874;2023-08-24T07:43:59;15.57;;;12.70;;
79631;SDS011;69108;41.120;16.874;2023-08-24T07:46:29;17.15;;;12.68;;
79631;SDS011;69108;41.120;16.874;2023-08-24T07:48:58;20.13;;;13.23;;
79631;SDS011;69108;41.120;16.874;2023-08-24T07:51:26;15.15;;;12.27;;
79631;SDS011;69108;41.120;16.874;2023-08-24T07:53:54;22.00;;;12.32;;
79631;SDS011;69108;41.120;16.874;2023-08-24T07:58:52;17.25;;;11.50;;
79631;SDS011;69108;41.120;16.874;2023-08-24T08:01:19;22.23;;;12.52;;
79631;SDS011;69108;41.120;16.874;2023-08-24T08:03:48;19.27;;;13.20;;
79631;SDS011;69108;41.120;16.874;2023-08-24T08:06:17;16.77;;;13.20;;
79631;SDS011;69108;41.120;16.874;2023-08-24T08:08:49;17.58;;;12.13;;
79631;SDS011;69108;41.120;16.874;2023-08-24T08:11:18;17.25;;;12.43;;
79631;SDS011;69108;41.120;16.874;2023-08-24T08:13:46;17.45;;;11.65;;
79631;SDS011;69108;41.120;16.874;2023-08-24T08:16:15;16.50;;;11.30;;
79631;SDS011;69108;41.120;16.874;2023-08-24T08:18:46;15.38;;;12.27;;
79631;SDS011;69108;41.120;16.874;2023-08-24T08:21:24;17.60;;;11.48;;
79631;SDS011;69108;41.120;16.874;2023-08-24T08:23:51;15.13;;;11.65;;
79631;SDS011;69108;41.120;16.874;2023-08-24T08:26:19;17.42;;;11.15;;
79631;SDS011;69108;41.120;16.874;2023-08-24T08:28:46;12.85;;;10.02;;
79631;SDS011;69108;41.120;16.874;2023-08-24T08:31:17;14.90;;;11.32;;
79631;SDS011;69108;41.120;16.874;2023-08-24T08:33:45;16.25;;;11.15;;
79631;SDS011;69108;41.120;16.874;2023-08-24T08:36:14;14.77;;;10.88;;
79631;SDS011;69108;41.120;16.874;2023-08-24T08:38:42;16.60;;;11.70;;
79631;SDS011;69108;41.120;16.874;2023-08-24T08:41:10;14.73;;;10.80;;
79631;SDS011;69108;41.120;16.874;2023-08-24T08:43:37;15.55;;;11.30;;
79631;SDS011;69108;41.120;16.874;2023-08-24T08:46:08;15.70;;;11.18;;
79631;SDS011;69108;41.120;16.874;2023-08-24T08:48:38;15.80;;;11.68;;
79631;SDS011;69108;41.120;16.874;2023-08-24T08:51:09;16.23;;;11.00;;
79631;SDS011;69108;41.120;16.874;2023-08-24T08:53:37;14.95;;;9.85;;
79631;SDS011;69108;41.120;16.874;2023-08-24T08:56:04;12.40;;;10.75;;
79631;SDS011;69108;41.120;16.874;2023-08-24T08:58:33;14.02;;;11.23;;
79631;SDS011;69108;41.120;16.874;2023-08-24T09:01:05;17.13;;;11.32;;
79631;SDS011;69108;41.120;16.874;2023-08-24T09:03:32;13.32;;;9.82;;
79631;SDS011;69108;41.120;16.874;2023-08-24T09:06:01;12.90;;;10.10;;
79631;SDS011;69108;41.120;16.874;2023-08-24T09:08:30;14.05;;;11.07;;
79631;SDS011;69108;41.120;16.874;2023-08-24T09:10:58;13.57;;;10.52;;
79631;SDS011;69108;41.120;16.874;2023-08-24T09:13:26;14.32;;;10.63;;
79631;SDS011;69108;41.120;16.874;2023-08-24T09:15:53;13.57;;;9.60;;
79631;SDS011;69108;41.120;16.874;2023-08-24T09:18:33;13.50;;;9.52;;
79631;SDS011;69108;41.120;16.874;2023-08-24T09:21:06;10.88;;;9.63;;
79631;SDS011;69108;41.120;16.874;2023-08-24T09:23:35;15.75;;;10.65;;
79631;SDS011;69108;41.120;16.874;2023-08-24T09:26:03;15.93;;;10.68;;
79631;SDS011;69108;41.120;16.874;2023-08-24T09:28:31;16.55;;;12.13;;
79631;SDS011;69108;41.120;16.874;2023-08-24T09:31:01;12.60;;;11.25;;
79631;SDS011;69108;41.120;16.874;2023-08-24T09:33:29;12.90;;;9.98;;
79631;SDS011;69108;41.120;16.874;2023-08-24T09:35:57;11.43;;;10.27;;
79631;SDS011;69108;41.120;16.874;2023-08-24T09:38:28;12.75;;;9.60;;
79631;SDS011;69108;41.120;16.874;2023-08-24T09:40:55;16.80;;;10.52;;
79631;SDS011;69108;41.120;16.874;2023-08-24T09:43:22;19.70;;;11.07;;
79631;SDS011;69108;41.120;16.874;2023-08-24T09:45:51;15.25;;;11.75;;
79631;SDS011;69108;41.120;16.874;2023-08-24T09:48:19;20.75;;;11.82;;
79631;SDS011;69108;41.120;16.874;2023-08-24T09:50:48;15.70;;;11.48;;
79631;SDS011;69108;41.120;16.874;2023-08-24T09:53:16;20.73;;;12.85;;
79631;SDS011;69108;41.120;16.874;2023-08-24T09:55:48;18.88;;;12.23;;
79631;SDS011;69108;41.120;16.874;2023-08-24T09:58:16;15.68;;;11.75;;
79631;SDS011;69108;41.120;16.874;2023-08-24T10:00:43;17.65;;;12.45;;
79631;SDS011;69108;41.120;16.874;2023-08-24T10:03:11;16.95;;;11.93;;
79631;SDS011;69108;41.120;16.874;2023-08-24T10:05:41;15.57;;;12.40;;
79631;SDS011;69108;41.120;16.874;2023-08-24T10:08:09;17.13;;;12.73;;
79631;SDS011;69108;41.120;16.874;2023-08-24T10:10:37;15.43;;;11.93;;
79631;SDS011;69108;41.120;16.874;2023-08-24T10:13:08;20.55;;;15.20;;
79631;SDS011;69108;41.120;16.874;2023-08-24T10:15:40;15.93;;;12.18;;
79631;SDS011;69108;41.120;16.874;2023-08-24T10:18:11;13.27;;;11.05;;
79631;SDS011;69108;41.120;16.874;2023-08-24T10:20:41;16.65;;;12.48;;
79631;SDS011;69108;41.120;16.874;2023-08-24T10:23:11;18.77;;;12.05;;
79631;SDS011;69108;41.120;16.874;2023-08-24T10:25:39;16.02;;;12.20;;
79631;SDS011;69108;41.120;16.874;2023-08-24T10:28:08;13.50;;;11.95;;
79631;SDS011;69108;41.120;16.874;2023-08-24T10:30:36;15.27;;;11.73;;
79631;SDS011;69108;41.120;16.874;2023-08-24T10:35:36;18.05;;;12.55;;
79631;SDS011;69108;41.120;16.874;2023-08-24T10:38:06;12.70;;;11.32;;
79631;SDS011;69108;41.120;16.874;2023-08-24T10:40:34;15.18;;;12.15;;
79631;SDS011;69108;41.120;16.874;2023-08-24T10:43:02;11.88;;;10.68;;
79631;SDS011;69108;41.120;16.874;2023-08-24T10:48:25;13.95;;;11.93;;
79631;SDS011;69108;41.120;16.874;2023-08-24T10:53:46;14.98;;;12.73;;
79631;SDS011;69108;41.120;16.874;2023-08-24T10:56:14;14.07;;;12.48;;
79631;SDS011;69108;41.120;16.874;2023-08-24T10:58:43;15.73;;;12.43;;
79631;SDS011;69108;41.120;16.874;2023-08-24T11:01:17;12.60;;;11.20;;
79631;SDS011;69108;41.120;16.874;2023-08-24T11:03:50;16.83;;;12.55;;
79631;SDS011;69108;41.120;16.874;2023-08-24T11:06:17;14.73;;;11.40;;
79631;SDS011;69108;41.120;16.874;2023-08-24T11:08:45;16.58;;;13.45;;
79631;SDS011;69108;41.120;16.874;2023-08-24T11:11:18;14.88;;;11.88;;
79631;SDS011;69108;41.120;16.874;2023-08-24T11:16:46;14.77;;;11.68;;
79631;SDS011;69108;41.120;16.874;2023-08-24T11:19:13;17.55;;;11.70;;
79631;SDS011;69108;41.120;16.874;2023-08-24T11:21:40;13.38;;;11.95;;
79631;SDS011;69108;41.120;16.874;2023-08-24T11:24:08;14.32;;;12.45;;
79631;SDS011;69108;41.120;16.874;2023-08-24T11:26:39;13.05;;;11.43;;
79631;SDS011;69108;41.120;16.874;2023-08-24T11:29:06;14.95;;;12.30;;
79631;SDS011;69108;41.120;16.874;2023-08-24T11:31:33;16.85;;;11.80;;
79631;SDS011;69108;41.120;16.874;2023-08-24T11:34:02;14.73;;;10.65;;
79631;SDS011;69108;41.120;16.874;2023-08-24T11:36:29;14.60;;;11.80;;
79631;SDS011;69108;41.120;16.874;2023-08-24T11:38:58;13.43;;;10.85;;
79631;SDS011;69108;41.120;16.874;2023-08-24T11:41:25;14.35;;;10.98;;
79631;SDS011;69108;41.120;16.874;2023-08-24T11:46:24;12.50;;;10.98;;
79631;SDS011;69108;41.120;16.874;2023-08-24T11:48:52;15.07;;;11.13;;
79631;SDS011;69108;41.120;16.874;2023-08-24T11:51:20;15.95;;;12.20;;
79631;SDS011;69108;41.120;16.874;2023-08-24T11:53:47;16.30;;;12.02;;
79631;SDS011;69108;41.120;16.874;2023-08-24T11:56:14;15.75;;;11.70;;
79631;SDS011;69108;41.120;16.874;2023-08-24T11:58:42;15.18;;;11.70;;
79631;SDS011;69108;41.120;16.874;2023-08-24T12:01:11;13.13;;;11.35;;
79631;SDS011;69108;41.120;16.874;2023-08-24T12:03:38;15.57;;;10.63;;
79631;SDS011;69108;41.120;16.874;2023-08-24T12:06:09;13.65;;;10.55;;
79631;SDS011;69108;41.120;16.874;2023-08-24T12:08:38;13.93;;;10.45;;
79631;SDS011;69108;41.120;16.874;2023-08-24T12:11:09;14.73;;;11.40;;
79631;SDS011;69108;41.120;16.874;2023-08-24T12:13:37;13.45;;;10.77;;
79631;SDS011;69108;41.120;16.874;2023-08-24T12:16:04;13.85;;;10.32;;
79631;SDS011;69108;41.120;16.874;2023-08-24T12:18:35;23.67;;;11.60;;
79631;SDS011;69108;41.120;16.874;2023-08-24T12:21:03;14.73;;;10.88;;
79631;SDS011;69108;41.120;16.874;2023-08-24T12:23:30;15.15;;;11.30;;
79631;SDS011;69108;41.120;16.874;2023-08-24T12:25:59;13.15;;;11.40;;
79631;SDS011;69108;41.120;16.874;2023-08-24T12:28:25;16.05;;;11.32;;
79631;SDS011;69108;41.120;16.874;2023-08-24T12:30:52;14.23;;;10.05;;
79631;SDS011;69108;41.120;16.874;2023-08-24T12:33:22;14.30;;;10.95;;
79631;SDS011;69108;41.120;16.874;2023-08-24T12:35:50;14.27;;;10.48;;
79631;SDS011;69108;41.120;16.874;2023-08-24T12:40:44;13.98;;;10.68;;
79631;SDS011;69108;41.120;16.874;2023-08-24T12:43:12;15.52;;;11.18;;
79631;SDS011;69108;41.120;16.874;2023-08-24T12:45:40;15.60;;;11.65;;
79631;SDS011;69108;41.120;16.874;2023-08-24T12:48:07;14.15;;;10.98;;
79631;SDS011;69108;41.120;16.874;2023-08-24T12:50:35;13.05;;;11.20;;
79631;SDS011;69108;41.120;16.874;2023-08-24T12:53:03;14.52;;;11.60;;
79631;SDS011;69108;41.120;16.874;2023-08-24T12:55:31;17.20;;;11.55;;
79631;SDS011;69108;41.120;16.874;2023-08-24T12:57:58;14.70;;;11.02;;
79631;SDS011;69108;41.120;16.874;2023-08-24T13:00:29;12.77;;;10.48;;
79631;SDS011;69108;41.120;16.874;2023-08-24T13:02:55;14.32;;;10.85;;
79631;SDS011;69108;41.120;16.874;2023-08-24T13:05:24;12.77;;;10.50;;
79631;SDS011;69108;41.120;16.874;2023-08-24T13:07:51;14.02;;;11.18;;
79631;SDS011;69108;41.120;16.874;2023-08-24T13:10:18;14.98;;;11.25;;
79631;SDS011;69108;41.120;16.874;2023-08-24T13:12:45;18.25;;;11.27;;
79631;SDS011;69108;41.120;16.874;2023-08-24T13:17:40;13.00;;;11.13;;
79631;SDS011;69108;41.120;16.874;2023-08-24T13:20:07;13.18;;;10.50;;
79631;SDS011;69108;41.120;16.874;2023-08-24T13:22:34;14.05;;;11.20;;
79631;SDS011;69108;41.120;16.874;2023-08-24T13:25:01;14.18;;;11.15;;
79631;SDS011;69108;41.120;16.874;2023-08-24T13:27:28;14.95;;;11.02;;
79631;SDS011;69108;41.120;16.874;2023-08-24T13:29:56;13.98;;;10.40;;
79631;SDS011;69108;41.120;16.874;2023-08-24T13:32:26;16.55;;;10.93;;
79631;SDS011;69108;41.120;16.874;2023-08-24T13:34:54;14.63;;;11.02;;
79631;SDS011;69108;41.120;16.874;2023-08-24T13:37:22;13.68;;;10.77;;
79631;SDS011;69108;41.120;16.874;2023-08-24T13:39:49;13.18;;;10.40;;
79631;SDS011;69108;41.120;16.874;2023-08-24T13:42:17;15.60;;;10.85;;
79631;SDS011;69108;41.120;16.874;2023-08-24T13:47:11;13.75;;;11.48;;
79631;SDS011;69108;41.120;16.874;2023-08-24T13:49:38;14.00;;;11.45;;
79631;SDS011;69108;41.120;16.874;2023-08-24T13:52:06;15.65;;;11.90;;
79631;SDS011;69108;41.120;16.874;2023-08-24T13:54:34;16.40;;;10.73;;
79631;SDS011;69108;41.120;16.874;2023-08-24T13:57:01;14.98;;;11.60;;
79631;SDS011;69108;41.120;16.874;2023-08-24T13:59:28;15.55;;;11.10;;
79631;SDS011;69108;41.120;16.874;2023-08-24T14:01:54;18.25;;;12.20;;
79631;SDS011;69108;41.120;16.874;2023-08-24T14:04:21;15.48;;;10.98;;
79631;SDS011;69108;41.120;16.874;2023-08-24T14:06:48;16.13;;;11.15;;
79631;SDS011;69108;41.120;16.874;2023-08-24T14:09:17;14.32;;;11.52;;
79631;SDS011;69108;41.120;16.874;2023-08-24T14:11:43;14.13;;;11.15;;
79631;SDS011;69108;41.120;16.874;2023-08-24T14:14:12;16.48;;;12.07;;
79631;SDS011;69108;41.120;16.874;2023-08-24T14:16:38;15.15;;;11.20;;
79631;SDS011;69108;41.120;16.874;2023-08-24T14:19:05;14.95;;;11.38;;
79631;SDS011;69108;41.120;16.874;2023-08-24T14:21:32;16.25;;;12.65;;
79631;SDS011;69108;41.120;16.874;2023-08-24T14:23:59;15.00;;;11.75;;
79631;SDS011;69108;41.120;16.874;2023-08-24T14:26:27;15.40;;;11.48;;
79631;SDS011;69108;41.120;16.874;2023-08-24T14:28:55;14.52;;;11.23;;
79631;SDS011;69108;41.120;16.874;2023-08-24T14:31:23;16.20;;;12.35;;
79631;SDS011;69108;41.120;16.874;2023-08-24T14:33:51;16.00;;;11.93;;
79631;SDS011;69108;41.120;16.874;2023-08-24T14:36:18;15.15;;;11.52;;
79631;SDS011;69108;41.120;16.874;2023-08-24T14:38:45;15.15;;;11.75;;
79631;SDS011;69108;41.120;16.874;2023-08-24T14:41:13;14.80;;;11.88;;
79631;SDS011;69108;41.120;16.874;2023-08-24T14:43:42;17.13;;;12.65;;
79631;SDS011;69108;41.120;16.874;2023-08-24T14:46:09;14.35;;;11.25;;
79631;SDS011;69108;41.120;16.874;2023-08-24T14:48:36;13.52;;;11.15;;
79631;SDS011;69108;41.120;16.874;2023-08-24T14:51:03;16.23;;;12.02;;
79631;SDS011;69108;41.120;16.874;2023-08-24T14:53:30;15.77;;;11.60;;
79631;SDS011;69108;41.120;16.874;2023-08-24T14:55:57;20.33;;;13.13;;
79631;SDS011;69108;41.120;16.874;2023-08-24T14:58:25;16.25;;;12.40;;
79631;SDS011;69108;41.120;16.874;2023-08-24T15:00:54;16.38;;;12.40;;